Time;durP1;ratioP1;P1;durP2;ratioP2;P2;SDS_P1;SDS_P2;PMS_P1;PMS_P2;Temp;Humidity;BMP_temperature;BMP_pressure;BME280_temperature;BME280_humidity;BME280_pressure;Samples;Min_cycle;Max_cycle;Signal;HPM_P1;HPM_P2
2023/05/01 05:12:53;;;;;;;8.25;2.75;;;14.70;63.90;;;;;;5472017;24;20059;-75
2023/05/01 05:15:25;;;;;;;13.88;3.45;;;14.90;64.60;;;;;;4776905;30;20074;-75
2023/05/01 05:17:51;;;;;;;12.95;3.40;;;15.00;64.80;;;;;;4789572;30;20055;-78
2023/05/01 05:20:17;;;;;;;13.88;3.25;;;15.00;65.50;;;;;;4783951;30;20058;-75
2023/05/01 05:22:42;;;;;;;18.40;3.50;;;15.10;65.40;;;;;;4789546;30;20400;-74
2023/05/01 05:25:08;;;;;;;15.73;3.63;;;15.20;65.70;;;;;;4789457;30;20479;-79
2023/05/01 05:27:36;;;;;;;16.55;3.97;;;15.20;66.30;;;;;;4787823;29;20406;-76
2023/05/01 05:30:04;;;;;;;15.00;3.47;;;15.30;66.40;;;;;;4780851;30;20116;-76
2023/05/01 05:32:30;;;;;;;21.10;3.20;;;15.30;66.40;;;;;;4782286;30;20101;-77
2023/05/01 05:34:56;;;;;;;17.77;3.75;;;15.30;66.60;;;;;;4789352;30;20051;-77
2023/05/01 05:37:24;;;;;;;14.95;2.92;;;15.40;66.80;;;;;;4789585;30;20090;-74
2023/05/01 05:39:50;;;;;;;16.80;3.53;;;15.30;67.00;;;;;;4776180;30;20056;-78
2023/05/01 05:42:16;;;;;;;14.93;3.28;;;15.30;67.10;;;;;;4780950;30;20051;-74
2023/05/01 05:44:42;;;;;;;20.58;3.63;;;15.40;67.60;;;;;;4789702;30;20055;-76
2023/05/01 05:47:08;;;;;;;22.50;4.07;;;15.40;67.40;;;;;;4789714;30;20047;-79
2023/05/01 05:49:35;;;;;;;19.13;3.45;;;15.40;67.40;;;;;;4773147;30;20460;-79
2023/05/01 05:52:01;;;;;;;25.65;3.80;;;15.40;67.20;;;;;;4789736;30;20486;-77
2023/05/01 05:54:27;;;;;;;15.07;2.80;;;15.40;67.20;;;;;;4789570;30;20082;-73
2023/05/01 05:56:53;;;;;;;11.68;3.35;;;15.40;67.30;;;;;;4789448;30;20345;-72
2023/05/01 05:59:19;;;;;;;17.27;3.65;;;15.50;66.80;;;;;;4779572;30;20091;-76
2023/05/01 06:01:48;;;;;;;17.00;3.50;;;15.50;65.80;;;;;;4773607;30;20167;-73
2023/05/01 06:04:15;;;;;;;13.93;3.92;;;15.50;65.30;;;;;;4789771;30;20059;-74
2023/05/01 06:06:41;;;;;;;12.48;4.20;;;15.50;65.10;;;;;;4789373;30;20123;-73
2023/05/01 06:09:07;;;;;;;19.77;3.95;;;15.60;64.80;;;;;;4798461;29;20159;-78
2023/05/01 06:11:33;;;;;;;17.40;3.28;;;15.50;64.80;;;;;;4792090;29;20055;-76
2023/05/01 06:13:59;;;;;;;21.15;3.45;;;15.60;65.20;;;;;;4792722;30;20102;-76
2023/05/01 06:16:25;;;;;;;17.98;4.10;;;15.60;65.20;;;;;;4792915;30;20056;-74
2023/05/01 06:18:51;;;;;;;27.73;4.70;;;15.60;65.20;;;;;;4792043;30;20429;-72
2023/05/01 06:21:17;;;;;;;17.65;4.13;;;15.60;65.40;;;;;;4792860;30;20058;-73
2023/05/01 06:23:42;;;;;;;19.45;4.25;;;15.60;65.40;;;;;;4792534;30;20051;-74
2023/05/01 06:26:08;;;;;;;15.02;4.47;;;15.60;65.10;;;;;;4792324;30;20112;-72
2023/05/01 06:28:34;;;;;;;13.55;3.42;;;15.60;64.60;;;;;;4789033;30;20056;-73
2023/05/01 06:31:00;;;;;;;21.08;3.78;;;15.50;64.40;;;;;;4774375;30;20052;-73
2023/05/01 06:33:25;;;;;;;14.68;4.35;;;15.50;64.30;;;;;;4774606;30;20056;-73
2023/05/01 06:35:51;;;;;;;15.93;3.90;;;15.50;64.40;;;;;;4775241;30;20075;-76
2023/05/01 06:38:17;;;;;;;13.38;3.40;;;15.50;64.40;;;;;;4774886;30;20055;-77
2023/05/01 06:40:45;;;;;;;19.75;3.75;;;15.40;64.30;;;;;;4793077;30;20132;-76
2023/05/01 06:43:11;;;;;;;19.25;4.28;;;15.40;64.40;;;;;;4786443;30;20088;-75
2023/05/01 06:45:38;;;;;;;16.65;3.85;;;15.40;64.60;;;;;;4780184;30;20079;-78
2023/05/01 06:48:04;;;;;;;23.92;4.03;;;15.30;64.50;;;;;;4783433;30;20123;-76
2023/05/01 06:50:30;;;;;;;16.85;4.07;;;15.40;65.60;;;;;;4792103;30;20086;-77
2023/05/01 06:52:57;;;;;;;15.05;3.83;;;15.40;66.30;;;;;;4785652;30;20106;-75
2023/05/01 06:55:23;;;;;;;13.95;3.67;;;15.50;66.50;;;;;;4784084;30;20051;-76
2023/05/01 06:57:49;;;;;;;16.95;4.35;;;15.50;66.40;;;;;;4774217;30;20059;-75
2023/05/01 07:00:16;;;;;;;20.67;5.43;;;15.50;65.90;;;;;;4779458;30;20152;-73
2023/05/01 07:02:45;;;;;;;21.88;5.20;;;15.50;65.50;;;;;;4791906;30;20477;-69
2023/05/01 07:05:11;;;;;;;16.90;5.07;;;15.50;64.80;;;;;;4784716;30;20055;-72
2023/05/01 07:07:37;;;;;;;18.48;4.97;;;15.50;63.40;;;;;;4791766;30;20052;-76
2023/05/01 07:10:03;;;;;;;15.38;4.70;;;15.50;62.90;;;;;;4792435;30;20332;-76
2023/05/01 07:12:28;;;;;;;10.18;4.20;;;15.50;62.90;;;;;;4776307;30;20432;-74
2023/05/01 07:14:55;;;;;;;10.63;4.03;;;15.50;63.60;;;;;;4790959;30;20055;-75
2023/05/01 07:17:21;;;;;;;12.20;4.28;;;15.50;63.10;;;;;;4775709;30;20051;-73
2023/05/01 07:19:48;;;;;;;11.02;4.00;;;15.50;63.20;;;;;;4791214;30;20059;-73
2023/05/01 07:22:14;;;;;;;10.73;4.35;;;15.50;63.30;;;;;;4776002;30;20098;-73
2023/05/01 07:24:40;;;;;;;11.18;3.70;;;15.50;63.30;;;;;;4784737;30;20112;-75
2023/05/01 07:27:06;;;;;;;11.45;3.67;;;15.50;63.50;;;;;;4773756;30;20043;-75
2023/05/01 07:29:32;;;;;;;12.85;3.75;;;15.50;63.40;;;;;;4773728;30;20448;-75
2023/05/01 07:31:58;;;;;;;10.02;3.72;;;15.50;63.40;;;;;;4773696;30;20056;-77
2023/05/01 07:34:23;;;;;;;10.45;3.17;;;15.50;63.30;;;;;;4777278;30;20047;-76
2023/05/01 07:36:49;;;;;;;7.45;3.00;;;15.50;63.30;;;;;;4791164;30;20467;-75
2023/05/01 07:39:16;;;;;;;10.60;3.70;;;15.50;63.30;;;;;;4775437;30;20463;-74
2023/05/01 07:41:42;;;;;;;10.30;3.83;;;15.50;63.30;;;;;;4791492;30;20483;-76
2023/05/01 07:44:08;;;;;;;8.65;2.40;;;15.60;63.30;;;;;;4789097;30;20048;-76
2023/05/01 07:46:35;;;;;;;7.93;3.20;;;15.60;63.20;;;;;;4778252;30;20379;-76
2023/05/01 07:49:01;;;;;;;9.98;3.10;;;15.50;63.20;;;;;;4791383;30;20057;-76
2023/05/01 07:51:27;;;;;;;5.07;2.80;;;15.50;63.20;;;;;;4790953;30;20051;-76
2023/05/01 07:53:52;;;;;;;11.40;3.30;;;15.60;63.30;;;;;;4790813;30;20173;-76
2023/05/01 07:56:18;;;;;;;9.82;2.97;;;15.50;63.30;;;;;;4775318;30;20425;-76
2023/05/01 07:58:44;;;;;;;4.10;2.33;;;15.60;63.30;;;;;;4785664;30;20058;-76
2023/05/01 08:01:10;;;;;;;6.68;2.40;;;15.50;63.30;;;;;;4791212;30;20134;-76
2023/05/01 08:03:35;;;;;;;7.43;2.70;;;15.60;63.40;;;;;;4790996;30;20123;-76
2023/05/01 08:06:01;;;;;;;5.72;2.47;;;15.60;63.40;;;;;;4774821;30;20160;-76
2023/05/01 08:08:27;;;;;;;4.47;1.98;;;15.50;63.40;;;;;;4772943;30;20445;-75
2023/05/01 08:10:53;;;;;;;5.40;2.38;;;15.60;63.60;;;;;;4772757;30;20460;-76
2023/05/01 08:13:19;;;;;;;9.63;2.10;;;15.60;63.60;;;;;;4772005;30;20047;-77
2023/05/01 08:15:46;;;;;;;6.90;2.80;;;15.60;63.60;;;;;;4790695;30;20066;-72
2023/05/01 08:18:18;;;;;;;8.00;2.20;;;15.60;63.80;;;;;;4790955;30;20169;-77
2023/05/01 08:20:45;;;;;;;6.68;2.10;;;15.60;64.80;;;;;;4790933;30;20090;-75
2023/05/01 08:23:11;;;;;;;12.35;2.75;;;15.60;64.80;;;;;;4790532;30;20055;-75
2023/05/01 08:25:37;;;;;;;6.88;2.08;;;15.60;64.90;;;;;;4774384;30;20473;-74
2023/05/01 08:28:05;;;;;;;13.20;2.60;;;15.70;65.00;;;;;;4789926;30;20506;-74
2023/05/01 08:30:31;;;;;;;7.97;2.75;;;15.70;64.80;;;;;;4790547;30;20131;-76
2023/05/01 08:32:57;;;;;;;7.47;2.40;;;15.70;64.80;;;;;;4790890;30;20055;-73
2023/05/01 08:35:22;;;;;;;6.65;2.03;;;15.70;64.80;;;;;;4789515;29;20079;-74
2023/05/01 08:37:48;;;;;;;7.88;2.42;;;15.70;64.80;;;;;;4790829;30;20051;-74
2023/05/01 08:40:14;;;;;;;10.02;2.13;;;15.70;64.90;;;;;;4789902;30;20063;-75
2023/05/01 08:42:41;;;;;;;5.38;2.50;;;15.70;64.80;;;;;;4790513;30;20063;-74
2023/05/01 08:45:08;;;;;;;10.88;3.00;;;15.70;64.70;;;;;;4789783;30;20066;-73
2023/05/01 08:47:38;;;;;;;8.20;2.28;;;15.70;64.50;;;;;;4790163;30;20185;-74
2023/05/01 08:50:10;;;;;;;9.15;2.35;;;15.70;64.80;;;;;;4790470;30;20131;-72
2023/05/01 08:52:41;;;;;;;5.22;2.17;;;15.70;64.80;;;;;;4790315;30;20134;-73
2023/05/01 08:55:12;;;;;;;9.10;2.67;;;15.70;64.90;;;;;;4789869;30;20475;-74
2023/05/01 08:57:38;;;;;;;6.97;2.45;;;15.80;65.00;;;;;;4790066;30;20039;-73
2023/05/01 09:00:05;;;;;;;5.32;2.53;;;15.80;65.10;;;;;;4789828;30;20061;-73
2023/05/01 09:02:34;;;;;;;3.30;1.75;;;15.80;65.30;;;;;;4790491;30;20066;-73
2023/05/01 09:05:02;;;;;;;3.55;2.13;;;15.80;65.30;;;;;;4789971;30;20470;-74
2023/05/01 09:07:28;;;;;;;5.20;2.10;;;15.80;65.40;;;;;;4789724;30;20122;-74
2023/05/01 09:09:54;;;;;;;5.07;1.90;;;15.90;65.40;;;;;;4790372;30;20475;-74
2023/05/01 09:12:23;;;;;;;4.18;1.67;;;15.80;65.40;;;;;;4774521;30;20055;-73
2023/05/01 09:14:51;;;;;;;5.07;1.67;;;15.90;65.50;;;;;;4784534;30;20048;-74
2023/05/01 09:17:17;;;;;;;4.70;2.08;;;15.90;65.50;;;;;;4771985;30;20460;-73
2023/05/01 09:19:43;;;;;;;8.02;2.20;;;15.90;65.60;;;;;;4771790;30;20052;-74
2023/05/01 09:22:09;;;;;;;6.05;1.83;;;15.90;65.70;;;;;;4772063;30;20052;-74
2023/05/01 09:24:34;;;;;;;7.38;2.42;;;15.90;65.70;;;;;;4773888;30;20047;-73
2023/05/01 09:27:00;;;;;;;5.53;1.92;;;15.90;65.60;;;;;;4790015;30;20058;-73
2023/05/01 09:29:46;;;;;;;5.53;2.13;;;15.90;65.70;;;;;;4789380;30;20063;-73
2023/05/01 09:32:32;;;;;;;8.00;2.08;;;15.90;65.80;;;;;;4789865;30;20047;-74
2023/05/01 09:35:14;;;;;;;5.35;1.77;;;15.90;65.90;;;;;;4783798;30;20079;-75
2023/05/01 09:37:40;;;;;;;3.40;1.50;;;15.90;65.90;;;;;;4771584;30;20060;-74
2023/05/01 09:40:15;;;;;;;4.60;1.88;;;16.00;66.00;;;;;;4771713;30;20055;-74
2023/05/01 09:42:54;;;;;;;5.13;2.30;;;15.90;66.00;;;;;;4771929;30;20063;-73
2023/05/01 09:45:22;;;;;;;4.20;1.80;;;15.90;66.00;;;;;;4782282;30;20059;-74
2023/05/01 09:47:48;;;;;;;3.45;1.50;;;16.00;66.00;;;;;;4775560;30;20212;-74
2023/05/01 09:50:33;;;;;;;2.10;1.15;;;15.90;66.00;;;;;;4775902;30;20071;-73
2023/05/01 09:53:05;;;;;;;2.63;1.42;;;16.00;66.10;;;;;;4774630;30;20056;-74
2023/05/01 09:55:31;;;;;;;3.20;1.67;;;16.00;66.10;;;;;;4784120;30;20051;-74
2023/05/01 09:58:00;;;;;;;2.85;1.38;;;16.00;66.10;;;;;;4793795;30;20325;-74
2023/05/01 10:00:26;;;;;;;2.30;1.23;;;16.00;66.10;;;;;;4793394;30;20063;-73
2023/05/01 10:02:52;;;;;;;2.92;1.40;;;16.00;66.10;;;;;;4792932;30;20054;-74
2023/05/01 10:05:18;;;;;;;3.60;1.15;;;16.00;66.10;;;;;;4785268;30;20056;-73
2023/05/01 10:08:13;;;;;;;2.85;1.40;;;16.00;66.20;;;;;;4774742;30;20056;-74
2023/05/01 10:10:42;;;;;;;6.05;1.52;;;16.00;66.20;;;;;;4773554;30;20074;-73
2023/05/01 10:13:15;;;;;;;3.63;1.40;;;16.00;66.00;;;;;;4774720;30;20089;-74
2023/05/01 10:15:41;;;;;;;2.88;1.55;;;16.10;66.10;;;;;;4783837;30;20059;-74
2023/05/01 10:18:10;;;;;;;2.80;1.45;;;16.10;66.20;;;;;;4792331;30;20120;-75
2023/05/01 10:20:36;;;;;;;3.75;1.33;;;16.10;66.20;;;;;;4792915;30;20119;-74
2023/05/01 10:23:02;;;;;;;2.20;1.02;;;16.10;66.20;;;;;;4792857;30;20130;-73
2023/05/01 10:25:30;;;;;;;4.30;1.30;;;16.00;66.10;;;;;;4784880;30;20371;-74
2023/05/01 10:27:56;;;;;;;3.08;1.52;;;16.10;66.10;;;;;;4774568;30;20051;-74
2023/05/01 10:30:22;;;;;;;1.88;1.10;;;16.10;66.10;;;;;;4774674;30;20055;-75
2023/05/01 10:32:48;;;;;;;2.35;1.10;;;16.10;66.10;;;;;;4774542;30;20059;-75
2023/05/01 10:35:37;;;;;;;2.63;1.10;;;16.10;66.10;;;;;;4780721;30;20051;-74
2023/05/01 10:38:10;;;;;;;2.08;1.30;;;16.10;66.20;;;;;;4792859;30;20062;-75
2023/05/01 10:40:39;;;;;;;3.97;1.48;;;16.10;66.10;;;;;;4792665;30;20063;-74
2023/05/01 10:43:25;;;;;;;3.65;1.08;;;16.10;66.10;;;;;;4792338;30;20062;-74
2023/05/01 10:45:52;;;;;;;4.00;1.33;;;16.20;66.20;;;;;;4781930;30;20059;-76
2023/05/01 10:48:36;;;;;;;2.78;1.15;;;16.20;66.10;;;;;;4774448;30;20134;-73
2023/05/01 10:51:11;;;;;;;2.33;1.20;;;16.10;66.20;;;;;;4774390;30;20063;-75
2023/05/01 10:53:38;;;;;;;2.42;1.15;;;16.10;66.10;;;;;;4774221;30;20130;-74
2023/05/01 10:56:05;;;;;;;2.65;1.45;;;16.20;66.20;;;;;;4785494;30;20062;-73
2023/05/01 10:58:39;;;;;;;1.73;0.93;;;16.10;66.10;;;;;;4791339;29;20051;-75
2023/05/01 11:01:33;;;;;;;2.08;1.10;;;16.10;66.00;;;;;;4791919;30;20138;-70
2023/05/01 11:04:00;;;;;;;;;;;16.20;66.10;;;;;;4792404;30;20108;-71
2023/05/01 11:06:26;;;;;;;6.13;1.73;;;16.20;66.20;;;;;;4778252;30;19925;-70
2023/05/01 11:08:54;;;;;;;6.50;1.63;;;16.20;65.80;;;;;;4774095;30;20383;-70
2023/05/01 11:11:22;;;;;;;4.70;1.52;;;16.20;65.60;;;;;;4773704;30;20073;-71
2023/05/01 11:13:58;;;;;;;2.97;1.50;;;16.20;65.10;;;;;;4773954;30;20086;-70
2023/05/01 11:16:36;;;;;;;3.90;1.50;;;16.20;64.50;;;;;;4786829;30;20337;-71
2023/05/01 11:19:21;;;;;;;2.72;1.40;;;16.20;64.40;;;;;;4792029;30;20055;-70
2023/05/01 11:21:47;;;;;;;3.38;1.63;;;16.20;63.90;;;;;;4791975;30;20566;-71
2023/05/01 11:24:13;;;;;;;3.90;1.80;;;16.20;63.80;;;;;;4790105;30;20375;-71
2023/05/01 11:26:41;;;;;;;3.10;1.60;;;16.20;63.80;;;;;;4791951;30;20093;-70
2023/05/01 11:29:09;;;;;;;3.75;1.27;;;16.20;63.70;;;;;;4791867;30;20452;-70
2023/05/01 11:31:35;;;;;;;3.08;1.40;;;16.20;63.60;;;;;;4792138;30;20055;-71
2023/05/01 11:34:01;;;;;;;2.92;1.65;;;16.20;63.60;;;;;;4782761;30;20055;-71
2023/05/01 11:36:29;;;;;;;6.43;1.88;;;16.20;63.50;;;;;;4773701;30;20052;-70
2023/05/01 11:38:57;;;;;;;4.88;2.00;;;16.20;63.40;;;;;;4773493;30;20360;-70
2023/05/01 11:41:24;;;;;;;4.03;1.63;;;16.20;63.40;;;;;;4773464;30;20052;-70
2023/05/01 11:43:55;;;;;;;3.20;1.73;;;16.20;63.50;;;;;;4780654;30;20122;-70
2023/05/01 11:46:29;;;;;;;3.45;1.90;;;16.20;63.50;;;;;;4791083;30;20494;-71
2023/05/01 11:48:56;;;;;;;3.63;1.70;;;16.20;63.50;;;;;;4791065;30;20047;-70
2023/05/01 11:51:23;;;;;;;3.58;1.88;;;16.20;63.60;;;;;;4791193;30;20051;-70
2023/05/01 11:54:10;;;;;;;3.25;1.75;;;16.20;63.60;;;;;;4784399;30;20055;-72
2023/05/01 11:56:37;;;;;;;31.60;4.00;;;16.10;63.50;;;;;;4773188;30;20047;-69
2023/05/01 11:59:15;;;;;;;23.73;4.13;;;16.20;63.60;;;;;;4773358;30;20056;-79
2023/05/01 12:01:43;;;;;;;24.35;5.05;;;16.20;64.20;;;;;;4774848;30;20078;-76
2023/05/01 12:04:10;;;;;;;20.10;3.95;;;16.20;64.30;;;;;;4786862;30;20047;-77
2023/05/01 12:06:39;;;;;;;26.27;4.10;;;16.20;64.40;;;;;;4763224;30;20059;-77
2023/05/01 12:09:07;;;;;;;29.67;4.63;;;16.10;64.40;;;;;;4773020;30;20456;-76
2023/05/01 12:11:34;;;;;;;25.48;4.57;;;16.20;64.50;;;;;;4791074;30;20044;-74
2023/05/01 12:14:00;;;;;;;24.50;5.05;;;16.20;64.50;;;;;;4790445;30;20066;-75
2023/05/01 12:16:27;;;;;;;21.30;4.75;;;16.20;64.60;;;;;;4790646;30;20051;-75
2023/05/01 12:18:54;;;;;;;19.83;4.10;;;16.10;64.60;;;;;;4790722;30;20134;-75
2023/05/01 12:21:20;;;;;;;16.30;3.65;;;16.20;64.60;;;;;;4790591;30;20497;-74
2023/05/01 12:23:46;;;;;;;17.95;4.18;;;16.20;64.60;;;;;;4786259;30;20181;-74
2023/05/01 12:26:19;;;;;;;19.95;3.65;;;16.20;64.70;;;;;;4772849;30;20138;-75
2023/05/01 12:28:57;;;;;;;14.53;4.20;;;16.20;65.60;;;;;;4773337;30;20070;-74
2023/05/01 12:31:24;;;;;;;13.35;3.08;;;16.20;65.10;;;;;;4778474;30;20070;-74
2023/05/01 12:34:07;;;;;;;19.00;4.05;;;16.20;65.20;;;;;;4783140;30;20083;-73
2023/05/01 12:36:35;;;;;;;12.15;3.15;;;16.20;65.90;;;;;;4780986;30;20486;-76
2023/05/01 12:39:02;;;;;;;13.02;3.42;;;16.20;65.30;;;;;;4790733;30;20055;-75
2023/05/01 12:41:44;;;;;;;13.63;3.80;;;16.20;65.10;;;;;;4789807;30;20058;-74
2023/05/01 12:44:18;;;;;;;11.25;4.28;;;16.20;65.00;;;;;;4790562;30;20047;-75
2023/05/01 12:46:51;;;;;;;12.00;5.07;;;16.20;64.90;;;;;;4772861;30;20047;-75
2023/05/01 12:49:18;;;;;;;10.02;5.22;;;16.20;64.80;;;;;;4780522;30;20371;-73
2023/05/01 12:51:52;;;;;;;10.40;4.97;;;16.20;64.70;;;;;;4789886;30;20055;-74
2023/05/01 12:54:31;;;;;;;11.13;4.43;;;16.20;64.90;;;;;;4789784;30;20059;-74
2023/05/01 12:57:10;;;;;;;8.70;4.70;;;16.20;64.90;;;;;;4784346;30;20051;-74
2023/05/01 12:59:38;;;;;;;9.90;4.28;;;16.20;65.10;;;;;;4776730;30;20063;-75
2023/05/01 13:02:13;;;;;;;8.25;4.20;;;16.20;65.10;;;;;;4789646;30;20055;-74
2023/05/01 13:04:40;;;;;;;9.73;4.32;;;16.20;65.10;;;;;;4787794;30;20061;-75
2023/05/01 13:07:18;;;;;;;10.85;5.07;;;16.20;65.00;;;;;;4782886;29;20051;-74
2023/05/01 13:09:56;;;;;;;7.68;4.97;;;16.20;65.10;;;;;;4788949;30;20051;-76
2023/05/01 13:12:23;;;;;;;13.57;5.88;;;16.20;65.10;;;;;;4786092;30;20131;-74
2023/05/01 13:14:49;;;;;;;13.10;5.15;;;16.20;65.10;;;;;;4777590;29;20495;-76
2023/05/01 13:17:22;;;;;;;14.68;5.13;;;16.20;65.20;;;;;;4765806;30;20063;-78
2023/05/01 13:19:59;;;;;;;15.60;5.22;;;16.30;65.30;;;;;;4775537;30;20062;-77
2023/05/01 13:22:29;;;;;;;12.07;5.07;;;16.30;65.40;;;;;;4783827;30;20055;-75
2023/05/01 13:24:55;;;;;;;8.43;4.20;;;16.30;65.50;;;;;;4774009;30;20482;-79
2023/05/01 13:27:22;;;;;;;8.88;4.07;;;16.30;65.50;;;;;;4789069;30;20046;-77
2023/05/01 13:29:56;;;;;;;7.63;4.30;;;16.20;65.70;;;;;;4781632;30;20060;-76
2023/05/01 13:32:23;;;;;;;14.10;4.63;;;16.30;65.70;;;;;;4783288;30;20055;-75
2023/05/01 13:34:50;;;;;;;9.48;4.55;;;16.30;65.70;;;;;;4789205;30;20067;-79
2023/05/01 13:37:16;;;;;;;10.95;4.95;;;16.30;66.40;;;;;;4781876;30;20447;-77
2023/05/01 13:39:43;;;;;;;13.43;5.63;;;16.30;66.00;;;;;;4774681;30;20051;-78
2023/05/01 13:42:11;;;;;;;19.88;7.00;;;16.30;65.90;;;;;;4789350;30;20388;-76
2023/05/01 13:44:48;;;;;;;18.48;6.55;;;16.30;66.10;;;;;;4789343;30;20403;-77
2023/05/01 13:47:16;;;;;;;16.13;5.80;;;16.30;66.40;;;;;;4785083;30;20180;-75
2023/05/01 13:49:42;;;;;;;15.30;5.75;;;16.30;66.40;;;;;;4771687;30;20341;-74
2023/05/01 13:52:16;;;;;;;20.00;6.10;;;16.30;66.50;;;;;;4761017;30;20128;-74
2023/05/01 13:54:44;;;;;;;16.27;6.20;;;16.30;66.40;;;;;;4789442;30;20075;-74
2023/05/01 13:57:10;;;;;;;16.70;6.15;;;16.30;66.50;;;;;;4789094;30;20085;-74
2023/05/01 13:59:39;;;;;;;15.02;7.35;;;16.30;66.40;;;;;;4789720;30;20131;-74
2023/05/01 14:02:25;;;;;;;11.68;6.95;;;16.20;66.30;;;;;;4789844;30;20059;-76
2023/05/01 14:04:52;;;;;;;14.75;7.22;;;16.30;66.90;;;;;;4789216;30;20047;-75
2023/05/01 14:07:22;;;;;;;14.23;7.15;;;16.30;66.00;;;;;;4789028;30;20057;-76
2023/05/01 14:09:55;;;;;;;19.95;8.00;;;16.20;66.10;;;;;;4790055;30;20108;-74
2023/05/01 14:12:29;;;;;;;17.60;7.60;;;16.20;66.10;;;;;;4789464;30;20047;-73
2023/05/01 14:14:55;;;;;;;16.60;8.25;;;16.10;66.10;;;;;;4789630;30;20421;-72
2023/05/01 14:17:31;;;;;;;11.55;7.35;;;16.10;66.60;;;;;;4788754;30;20471;-73
2023/05/01 14:19:57;;;;;;;14.25;8.55;;;16.00;66.80;;;;;;4789384;30;20050;-72
2023/05/01 14:22:27;;;;;;;14.45;8.13;;;16.00;67.20;;;;;;4789529;30;20476;-74
2023/05/01 14:24:53;;;;;;;12.52;8.27;;;15.90;67.30;;;;;;4788310;29;20152;-72
2023/05/01 14:27:20;;;;;;;18.73;8.27;;;15.80;67.50;;;;;;4778158;30;20055;-73
2023/05/01 14:29:46;;;;;;;16.65;8.20;;;15.90;67.10;;;;;;4785225;30;20428;-74
2023/05/01 14:32:14;;;;;;;18.50;9.48;;;15.90;67.00;;;;;;4773860;30;20130;-72
2023/05/01 14:34:41;;;;;;;17.50;8.38;;;15.80;67.50;;;;;;4792665;30;20111;-73
2023/05/01 14:37:08;;;;;;;16.95;8.68;;;15.80;67.40;;;;;;4792021;30;20096;-74
2023/05/01 14:39:35;;;;;;;15.35;9.18;;;15.80;67.70;;;;;;4792808;30;20066;-74
2023/05/01 14:42:01;;;;;;;18.25;8.30;;;15.80;67.90;;;;;;4793172;30;20351;-73
2023/05/01 14:44:27;;;;;;;15.93;9.02;;;15.80;68.10;;;;;;4792323;30;20363;-73
2023/05/01 14:46:53;;;;;;;14.50;8.32;;;15.90;68.20;;;;;;4792270;30;20126;-73
2023/05/01 14:49:21;;;;;;;18.05;8.15;;;15.90;68.80;;;;;;4775408;30;20139;-73
2023/05/01 14:51:48;;;;;;;12.55;7.93;;;15.90;69.40;;;;;;4774384;30;20055;-73
2023/05/01 14:54:14;;;;;;;16.13;7.55;;;15.90;69.80;;;;;;4774373;30;20048;-73
2023/05/01 14:56:41;;;;;;;12.25;7.18;;;16.00;70.50;;;;;;4774556;30;20074;-73
2023/05/01 14:59:07;;;;;;;17.02;7.53;;;16.00;70.00;;;;;;4787962;30;20132;-73
2023/05/01 15:01:32;;;;;;;21.58;7.90;;;16.10;70.60;;;;;;4792641;30;20055;-73
2023/05/01 15:03:58;;;;;;;14.70;7.97;;;16.10;70.00;;;;;;4792169;30;20047;-73
2023/05/01 15:06:25;;;;;;;12.90;6.95;;;16.10;70.60;;;;;;4792012;30;20054;-73
2023/05/01 15:08:51;;;;;;;33.60;9.30;;;16.20;70.10;;;;;;4779749;30;20373;-73
2023/05/01 15:11:17;;;;;;;20.50;6.97;;;16.20;70.10;;;;;;4774701;30;20062;-72
2023/05/01 15:13:44;;;;;;;24.90;8.15;;;16.20;70.00;;;;;;4773780;30;20131;-72
2023/05/01 15:16:11;;;;;;;34.45;9.05;;;16.20;69.90;;;;;;4773868;30;20067;-73
2023/05/01 15:18:37;;;;;;;25.85;9.07;;;16.20;69.30;;;;;;4783864;30;20043;-72
2023/05/01 15:21:03;;;;;;;34.63;10.63;;;16.20;68.90;;;;;;4791720;30;20055;-72
2023/05/01 15:23:30;;;;;;;32.58;10.85;;;16.20;68.60;;;;;;4791789;30;20130;-74
2023/05/01 15:25:56;;;;;;;20.90;9.50;;;16.20;68.10;;;;;;4791513;30;20062;-74
2023/05/01 15:28:23;;;;;;;18.90;8.65;;;16.20;68.00;;;;;;4786717;30;20051;-74
2023/05/01 15:30:51;;;;;;;22.67;9.52;;;16.30;68.00;;;;;;4791567;30;20059;-74
2023/05/01 15:33:17;;;;;;;20.10;9.75;;;16.20;67.90;;;;;;4791467;30;20126;-74
2023/05/01 15:35:44;;;;;;;25.27;9.88;;;16.30;68.00;;;;;;4791719;30;20177;-74
2023/05/01 15:38:11;;;;;;;16.02;8.10;;;16.30;67.90;;;;;;4790748;30;20062;-73
2023/05/01 15:40:37;;;;;;;19.35;9.02;;;16.30;68.00;;;;;;4791727;30;20383;-74
2023/05/01 15:43:04;;;;;;;15.88;8.10;;;16.30;67.90;;;;;;4790768;29;20196;-74
2023/05/01 15:45:31;;;;;;;14.95;9.00;;;16.30;67.80;;;;;;4791259;30;20056;-74
2023/05/01 15:47:57;;;;;;;17.33;8.63;;;16.30;67.80;;;;;;4786549;30;20456;-74
2023/05/01 15:50:22;;;;;;;14.13;9.13;;;16.30;67.80;;;;;;4773485;30;20055;-74
2023/05/01 15:52:48;;;;;;;16.02;9.20;;;16.30;67.60;;;;;;4773296;30;20119;-74
2023/05/01 15:55:14;;;;;;;15.60;9.02;;;16.40;67.60;;;;;;4773514;30;20044;-75
2023/05/01 15:57:45;;;;;;;15.65;8.63;;;16.40;67.40;;;;;;4760020;30;20479;-75
2023/05/01 16:00:13;;;;;;;18.17;9.10;;;16.40;67.30;;;;;;4791302;30;20422;-74
2023/05/01 16:02:39;;;;;;;14.32;8.05;;;16.40;67.30;;;;;;4790595;30;20059;-76
2023/05/01 16:05:07;;;;;;;16.38;7.22;;;16.40;67.20;;;;;;4787456;30;20048;-77
2023/05/01 16:07:33;;;;;;;9.55;5.72;;;16.40;67.30;;;;;;4781490;30;20443;-75
2023/05/01 16:09:59;;;;;;;15.35;8.02;;;16.30;67.60;;;;;;4781873;30;20062;-77
2023/05/01 16:12:28;;;;;;;32.30;8.65;;;16.40;67.90;;;;;;4772951;30;20056;-78
2023/05/01 16:14:54;;;;;;;21.23;7.20;;;16.40;68.20;;;;;;4772952;30;20438;-77
2023/05/01 16:17:20;;;;;;;20.45;7.80;;;16.40;68.30;;;;;;4772846;30;20064;-79
2023/05/01 16:19:46;;;;;;;17.95;8.13;;;16.40;68.50;;;;;;4757592;30;20130;-78
2023/05/01 16:22:13;;;;;;;29.83;9.90;;;16.40;68.60;;;;;;4757263;30;20372;-78
2023/05/01 18:02:09;;;;;;;20.38;14.80;;;15.70;68.80;;;;;;4815169;24;20054;-70
2023/05/01 18:04:37;;;;;;;17.35;14.95;;;15.60;69.10;;;;;;4819097;29;20466;-70
2023/05/01 18:07:02;;;;;;;18.85;15.30;;;15.60;69.40;;;;;;4827361;29;20365;-71
2023/05/01 18:09:28;;;;;;;17.85;15.02;;;15.60;69.60;;;;;;4811054;29;20069;-71
2023/05/01 18:11:54;;;;;;;16.95;14.63;;;15.60;69.80;;;;;;4811308;29;20224;-71
2023/05/01 18:14:19;;;;;;;17.55;15.68;;;15.50;70.00;;;;;;4794940;29;20119;-71
2023/05/01 18:16:45;;;;;;;20.50;15.13;;;15.50;70.20;;;;;;4810799;29;20408;-72
2023/05/01 18:19:11;;;;;;;19.08;15.10;;;15.50;70.50;;;;;;4810878;29;20455;-71
2023/05/01 18:21:37;;;;;;;21.08;16.02;;;15.40;70.60;;;;;;4828258;29;20469;-71
2023/05/01 18:24:03;;;;;;;20.50;15.38;;;15.40;70.90;;;;;;4829012;29;20366;-71
2023/05/01 18:26:29;;;;;;;20.85;16.42;;;15.30;70.60;;;;;;4828343;29;20046;-71
